Time;durP1;ratioP1;P1;durP2;ratioP2;P2;SDS_P1;SDS_P2;PMS_P1;PMS_P2;Temp;Humidity;BMP_temperature;BMP_pressure;BME280_temperature;BME280_humidity;BME280_pressure;Samples;Min_cycle;Max_cycle;Signal;HPM_P1;HPM_P2
2021/11/21 00:00:06;;;;;;;0.75;0.75;;;;;;;;;;5064463;28;20111;-84
2021/11/21 00:02:32;;;;;;;0.90;0.90;;;;;;;;;;5065726;28;20082;-83
2021/11/21 00:04:58;;;;;;;0.77;0.77;;;;;;;;;;5065822;28;20042;-85
2021/11/21 00:07:24;;;;;;;0.60;0.60;;;;;;;;;;5045567;28;20327;-85
2021/11/21 00:09:50;;;;;;;0.80;0.80;;;;;;;;;;5068103;28;20039;-83
2021/11/21 00:12:17;;;;;;;0.90;0.90;;;;;;;;;;5065635;28;20115;-83
2021/11/21 00:14:44;;;;;;;0.70;0.70;;;;;;;;;;5065402;28;20041;-84
2021/11/21 00:17:11;;;;;;;0.70;0.70;;;;;;;;;;5065015;28;20406;-84
2021/11/21 00:19:39;;;;;;;;;;;;;;;;;;5063815;28;20106;-84
2021/11/21 00:22:05;;;;;;;0.50;0.50;;;;;;;;;;5064197;28;19908;-84
2021/11/21 00:24:31;;;;;;;0.50;0.50;;;;;;;;;;5067197;28;20436;-83
2021/11/21 00:26:57;;;;;;;0.55;0.55;;;;;;;;;;5065488;28;20028;-84
2021/11/21 00:29:23;;;;;;;1.00;1.00;;;;;;;;;;5065650;28;20041;-85
2021/11/21 00:31:50;;;;;;;0.70;0.70;;;;;;;;;;5063659;28;20046;-84
2021/11/21 00:34:16;;;;;;;0.70;0.70;;;;;;;;;;5060514;28;20506;-83
2021/11/21 00:36:42;;;;;;;0.82;0.82;;;;;;;;;;5067556;28;20032;-84
2021/11/21 00:39:08;;;;;;;0.90;0.90;;;;;;;;;;5064198;28;20025;-84
2021/11/21 00:41:34;;;;;;;0.60;0.60;;;;;;;;;;5065063;28;20039;-84
2021/11/21 00:44:00;;;;;;;0.67;0.67;;;;;;;;;;5065348;28;20063;-85
2021/11/21 00:46:26;;;;;;;0.60;0.60;;;;;;;;;;5060794;28;20029;-85
2021/11/21 00:48:52;;;;;;;0.50;0.50;;;;;;;;;;5074822;28;20032;-85
2021/11/21 00:51:19;;;;;;;0.53;0.53;;;;;;;;;;5065359;28;20136;-84
2021/11/21 00:53:45;;;;;;;0.50;0.50;;;;;;;;;;5065276;28;20033;-84
2021/11/21 00:56:12;;;;;;;0.50;0.50;;;;;;;;;;5065372;28;20064;-84
2021/11/21 00:58:38;;;;;;;;;;;;;;;;;;5063468;28;20116;-84
2021/11/21 01:01:07;;;;;;;0.60;0.60;;;;;;;;;;5064728;28;19995;-83
2021/11/21 01:03:34;;;;;;;0.63;0.63;;;;;;;;;;5065317;28;20048;-84
2021/11/21 01:06:00;;;;;;;0.90;0.90;;;;;;;;;;5064524;28;20056;-84
2021/11/21 01:08:27;;;;;;;0.60;0.60;;;;;;;;;;5064392;28;20079;-83
2021/11/21 01:10:56;;;;;;;0.60;0.60;;;;;;;;;;5064707;28;20028;-84
2021/11/21 01:13:22;;;;;;;0.55;0.55;;;;;;;;;;5060899;28;20032;-84
2021/11/21 01:15:48;;;;;;;0.57;0.57;;;;;;;;;;5066804;28;20813;-85
2021/11/21 01:18:15;;;;;;;0.63;0.63;;;;;;;;;;5063494;28;20424;-84
2021/11/21 01:20:42;;;;;;;0.60;0.60;;;;;;;;;;5064610;28;20032;-84
2021/11/21 01:23:09;;;;;;;0.60;0.60;;;;;;;;;;5064461;28;20051;-85
2021/11/21 01:25:36;;;;;;;0.70;0.70;;;;;;;;;;5061831;28;20033;-84
2021/11/21 01:28:02;;;;;;;0.63;0.63;;;;;;;;;;5064935;28;20028;-82
2021/11/21 01:30:29;;;;;;;0.50;0.50;;;;;;;;;;5066009;28;20504;-85
2021/11/21 01:32:56;;;;;;;0.70;0.70;;;;;;;;;;5065044;28;20104;-84
2021/11/21 01:35:22;;;;;;;;;;;;;;;;;;5065696;28;20103;-84
2021/11/21 01:37:48;;;;;;;0.50;0.50;;;;;;;;;;5063134;28;19990;-84
2021/11/21 01:40:15;;;;;;;0.60;0.60;;;;;;;;;;5061799;28;20029;-84
2021/11/21 01:42:41;;;;;;;0.40;0.40;;;;;;;;;;5067040;28;20233;-84
2021/11/21 01:45:07;;;;;;;0.40;0.40;;;;;;;;;;5064465;28;20797;-84
2021/11/21 01:47:37;;;;;;;0.30;0.30;;;;;;;;;;5064542;28;20036;-84
2021/11/21 01:50:05;;;;;;;0.40;0.40;;;;;;;;;;5063688;28;20115;-84
2021/11/21 01:52:31;;;;;;;0.57;0.57;;;;;;;;;;5064272;28;20414;-84
2021/11/21 01:54:58;;;;;;;0.70;0.70;;;;;;;;;;5069548;28;20070;-84
2021/11/21 01:57:25;;;;;;;0.60;0.60;;;;;;;;;;5070537;28;20088;-85
2021/11/21 01:59:52;;;;;;;0.50;0.50;;;;;;;;;;5072320;28;20595;-83
2021/11/21 02:02:18;;;;;;;0.60;0.60;;;;;;;;;;5067598;28;20123;-84
2021/11/21 02:04:44;;;;;;;0.60;0.60;;;;;;;;;;5066406;28;20131;-84
2021/11/21 02:07:10;;;;;;;0.55;0.55;;;;;;;;;;5065509;28;20063;-84
2021/11/21 02:09:37;;;;;;;0.60;0.60;;;;;;;;;;5070211;28;20059;-84
2021/11/21 02:12:03;;;;;;;0.70;0.70;;;;;;;;;;5068233;28;20024;-84
2021/11/21 02:14:30;;;;;;;0.40;0.40;;;;;;;;;;5067681;28;20029;-84
2021/11/21 02:16:56;;;;;;;0.50;0.50;;;;;;;;;;5067216;28;20448;-84
2021/11/21 02:19:22;;;;;;;0.75;0.75;;;;;;;;;;5064154;28;20137;-84
2021/11/21 02:21:48;;;;;;;0.80;0.80;;;;;;;;;;5070129;28;20024;-83
2021/11/21 02:24:14;;;;;;;0.60;0.60;;;;;;;;;;5067702;28;20816;-84
2021/11/21 02:26:41;;;;;;;0.70;0.70;;;;;;;;;;5067437;28;20036;-84
2021/11/21 02:29:07;;;;;;;0.70;0.70;;;;;;;;;;5066130;28;20078;-84
2021/11/21 02:31:33;;;;;;;0.60;0.60;;;;;;;;;;5064558;28;20139;-83
2021/11/21 02:33:59;;;;;;;0.60;0.60;;;;;;;;;;5068294;28;20044;-85
2021/11/21 02:36:25;;;;;;;0.60;0.60;;;;;;;;;;5068342;28;20089;-84
2021/11/21 02:38:51;;;;;;;0.60;0.60;;;;;;;;;;5067836;28;20119;-84
2021/11/21 02:41:17;;;;;;;0.60;0.60;;;;;;;;;;5066989;28;20270;-84
2021/11/21 02:43:45;;;;;;;0.77;0.77;;;;;;;;;;5062552;28;20520;-83
2021/11/21 02:46:12;;;;;;;0.60;0.60;;;;;;;;;;5079516;28;20400;-84
2021/11/21 02:48:38;;;;;;;0.60;0.60;;;;;;;;;;5069900;28;20028;-83
2021/11/21 02:51:05;;;;;;;0.60;0.60;;;;;;;;;;5066828;28;20024;-84
2021/11/21 02:53:33;;;;;;;0.60;0.60;;;;;;;;;;5067355;28;20056;-83
2021/11/21 02:56:01;;;;;;;0.90;0.90;;;;;;;;;;5065700;28;20139;-84
2021/11/21 02:58:31;;;;;;;0.70;0.70;;;;;;;;;;5062570;28;20037;-86
2021/11/21 03:00:57;;;;;;;0.55;0.55;;;;;;;;;;5084874;28;20066;-85
2021/11/21 03:03:23;;;;;;;0.70;0.70;;;;;;;;;;5067163;28;20047;-84
2021/11/21 03:05:49;;;;;;;0.55;0.55;;;;;;;;;;5067082;28;20024;-84
2021/11/21 03:08:15;;;;;;;0.68;0.68;;;;;;;;;;5066682;28;20448;-84
2021/11/21 03:10:42;;;;;;;0.50;0.50;;;;;;;;;;5064262;28;20047;-84
2021/11/21 03:13:08;;;;;;;0.50;0.50;;;;;;;;;;5064423;28;20493;-83
2021/11/21 03:15:34;;;;;;;0.50;0.50;;;;;;;;;;5065034;28;21011;-83
2021/11/21 03:18:01;;;;;;;0.50;0.50;;;;;;;;;;5066367;28;20830;-84
2021/11/21 03:20:29;;;;;;;0.50;0.50;;;;;;;;;;5066584;28;20267;-84
2021/11/21 03:22:56;;;;;;;0.57;0.57;;;;;;;;;;5065970;28;20036;-84
2021/11/21 03:25:22;;;;;;;0.50;0.50;;;;;;;;;;5061894;28;20200;-84
2021/11/21 03:27:48;;;;;;;0.88;0.88;;;;;;;;;;5068717;28;20036;-84
2021/11/21 03:30:16;;;;;;;0.80;0.80;;;;;;;;;;5066350;28;20033;-84
2021/11/21 03:32:42;;;;;;;0.45;0.45;;;;;;;;;;5066704;28;20020;-85
2021/11/21 03:35:08;;;;;;;0.57;0.57;;;;;;;;;;5066195;28;20215;-84
2021/11/21 03:37:35;;;;;;;0.60;0.60;;;;;;;;;;5062926;28;20244;-84
2021/11/21 03:40:02;;;;;;;0.60;0.60;;;;;;;;;;5066148;28;20028;-84
2021/11/21 03:42:28;;;;;;;0.70;0.70;;;;;;;;;;5067205;28;20647;-84
2021/11/21 03:44:54;;;;;;;0.47;0.47;;;;;;;;;;5066327;28;20049;-84
2021/11/21 03:47:20;;;;;;;0.50;0.50;;;;;;;;;;5066140;28;20587;-84
2021/11/21 03:49:46;;;;;;;0.50;0.50;;;;;;;;;;5063771;28;20033;-84
2021/11/21 03:52:12;;;;;;;0.60;0.60;;;;;;;;;;5063696;28;20063;-84
2021/11/21 03:54:39;;;;;;;0.40;0.40;;;;;;;;;;5068298;28;20040;-83
2021/11/21 03:57:05;;;;;;;0.60;0.60;;;;;;;;;;5064907;28;20642;-84
2021/11/21 03:59:31;;;;;;;0.60;0.60;;;;;;;;;;5063363;28;20078;-84
2021/11/21 04:01:59;;;;;;;1.13;1.13;;;;;;;;;;5066875;28;20270;-83
2021/11/21 04:04:26;;;;;;;0.30;0.30;;;;;;;;;;5061699;28;20517;-84
2021/11/21 04:06:52;;;;;;;0.30;0.30;;;;;;;;;;5068180;28;20477;-84
2021/11/21 04:09:18;;;;;;;0.30;0.30;;;;;;;;;;5065647;28;20037;-84
2021/11/21 04:11:44;;;;;;;0.40;0.40;;;;;;;;;;5065835;28;20461;-84
2021/11/21 04:14:10;;;;;;;0.50;0.50;;;;;;;;;;5065673;28;20028;-84
2021/11/21 04:16:36;;;;;;;0.40;0.40;;;;;;;;;;5060875;28;20116;-83
2021/11/21 04:19:04;;;;;;;0.40;0.40;;;;;;;;;;5065881;28;20603;-84
2021/11/21 04:21:30;;;;;;;0.40;0.40;;;;;;;;;;5067099;28;20070;-84
2021/11/21 04:23:57;;;;;;;0.40;0.40;;;;;;;;;;5064812;28;20607;-84
2021/11/21 04:26:23;;;;;;;0.40;0.40;;;;;;;;;;5065812;28;20031;-83
2021/11/21 04:28:49;;;;;;;0.40;0.40;;;;;;;;;;5064405;28;20040;-83
2021/11/21 04:31:15;;;;;;;0.40;0.40;;;;;;;;;;5062500;28;20317;-84
2021/11/21 04:33:41;;;;;;;0.40;0.40;;;;;;;;;;5081004;28;20032;-84
2021/11/21 04:36:07;;;;;;;0.30;0.30;;;;;;;;;;5067509;28;20024;-84
2021/11/21 04:38:33;;;;;;;0.40;0.40;;;;;;;;;;5064961;28;20044;-84
2021/11/21 04:40:59;;;;;;;0.40;0.40;;;;;;;;;;5065307;28;20273;-84
2021/11/21 04:43:25;;;;;;;0.40;0.40;;;;;;;;;;5044738;28;20037;-84
2021/11/21 04:45:54;;;;;;;0.90;0.90;;;;;;;;;;5067427;28;20066;-84
2021/11/21 04:48:20;;;;;;;0.80;0.80;;;;;;;;;;5065699;28;20070;-84
2021/11/21 04:50:46;;;;;;;0.45;0.45;;;;;;;;;;5065563;28;20072;-84
2021/11/21 04:53:12;;;;;;;0.40;0.40;;;;;;;;;;5065032;28;20463;-84
2021/11/21 04:55:39;;;;;;;0.30;0.30;;;;;;;;;;5061347;28;20029;-83
2021/11/21 04:58:05;;;;;;;0.50;0.50;;;;;;;;;;5064667;28;20016;-83
2021/11/21 05:00:31;;;;;;;0.45;0.45;;;;;;;;;;5066425;28;20037;-83
2021/11/21 05:02:57;;;;;;;0.40;0.40;;;;;;;;;;5064865;28;20028;-83
2021/11/21 05:05:24;;;;;;;0.40;0.40;;;;;;;;;;5065231;28;20112;-84
2021/11/21 05:07:50;;;;;;;0.40;0.40;;;;;;;;;;5064070;28;20722;-83
2021/11/21 05:10:16;;;;;;;0.40;0.40;;;;;;;;;;5061734;28;20020;-83
2021/11/21 05:12:43;;;;;;;0.40;0.40;;;;;;;;;;5067607;28;20107;-85
2021/11/21 05:15:11;;;;;;;0.40;0.40;;;;;;;;;;5064936;28;20060;-84
2021/11/21 05:17:37;;;;;;;0.43;0.43;;;;;;;;;;5064959;28;20024;-83
2021/11/21 05:20:04;;;;;;;0.20;0.20;;;;;;;;;;5064958;28;20032;-84
2021/11/21 05:22:30;;;;;;;0.40;0.40;;;;;;;;;;5058365;28;20062;-83
2021/11/21 05:24:57;;;;;;;0.30;0.30;;;;;;;;;;5067300;28;20576;-84
2021/11/21 05:27:24;;;;;;;0.30;0.30;;;;;;;;;;5069534;28;20036;-84
2021/11/21 05:29:50;;;;;;;0.55;0.55;;;;;;;;;;5069412;28;20029;-83
2021/11/21 05:32:16;;;;;;;0.40;0.40;;;;;;;;;;5068826;28;20043;-83
2021/11/21 05:34:42;;;;;;;0.30;0.30;;;;;;;;;;5066511;28;20029;-84
2021/11/21 05:37:09;;;;;;;0.40;0.40;;;;;;;;;;5067025;28;20471;-83
2021/11/21 05:39:35;;;;;;;0.40;0.40;;;;;;;;;;5069677;28;20024;-84
2021/11/21 05:42:01;;;;;;;0.40;0.40;;;;;;;;;;5068388;28;20115;-84
2021/11/21 05:44:27;;;;;;;0.40;0.40;;;;;;;;;;5068062;28;20572;-84
2021/11/21 05:46:53;;;;;;;0.40;0.40;;;;;;;;;;5067526;28;20031;-83
2021/11/21 05:49:19;;;;;;;0.30;0.30;;;;;;;;;;5065108;28;20048;-84
2021/11/21 05:51:45;;;;;;;0.50;0.50;;;;;;;;;;5085321;28;20016;-84
2021/11/21 05:54:11;;;;;;;0.40;0.40;;;;;;;;;;5068149;28;20077;-85
2021/11/21 05:56:37;;;;;;;0.40;0.40;;;;;;;;;;5068158;28;20078;-83
2021/11/21 05:59:03;;;;;;;0.30;0.30;;;;;;;;;;5068328;28;20111;-84
2021/11/21 06:01:30;;;;;;;0.30;0.30;;;;;;;;;;5063823;28;20472;-84
2021/11/21 06:03:56;;;;;;;0.30;0.30;;;;;;;;;;5069967;28;20044;-85
2021/11/21 06:06:23;;;;;;;0.30;0.30;;;;;;;;;;5067585;28;20409;-84
2021/11/21 06:08:49;;;;;;;0.40;0.40;;;;;;;;;;5068504;28;20024;-84
2021/11/21 06:11:15;;;;;;;0.30;0.30;;;;;;;;;;5068265;28;20157;-84
2021/11/21 06:13:42;;;;;;;0.40;0.40;;;;;;;;;;5065430;28;20025;-84
2021/11/21 06:16:08;;;;;;;0.30;0.30;;;;;;;;;;5066847;28;20031;-85
2021/11/21 06:18:34;;;;;;;0.38;0.38;;;;;;;;;;5069983;28;20075;-83
2021/11/21 06:21:00;;;;;;;0.30;0.30;;;;;;;;;;5067571;28;20071;-84
2021/11/21 06:23:32;;;;;;;0.30;0.30;;;;;;;;;;5068256;28;20621;-84
2021/11/21 06:25:58;;;;;;;0.50;0.50;;;;;;;;;;5067435;28;20126;-83
2021/11/21 06:28:25;;;;;;;0.40;0.40;;;;;;;;;;5063801;28;20153;-84
2021/11/21 06:30:52;;;;;;;0.40;0.40;;;;;;;;;;5070405;28;20522;-84
2021/11/21 06:33:18;;;;;;;0.40;0.40;;;;;;;;;;5067651;28;20079;-84
2021/11/21 06:35:44;;;;;;;0.40;0.40;;;;;;;;;;5067137;28;20448;-84
2021/11/21 06:38:10;;;;;;;0.77;0.77;;;;;;;;;;5067780;28;20047;-84
2021/11/21 06:40:36;;;;;;;0.50;0.50;;;;;;;;;;5064615;28;20029;-84
2021/11/21 06:43:02;;;;;;;0.57;0.57;;;;;;;;;;5066192;28;20082;-84
2021/11/21 06:45:28;;;;;;;0.40;0.40;;;;;;;;;;5068419;28;20271;-84
2021/11/21 06:47:54;;;;;;;0.40;0.40;;;;;;;;;;5067586;28;20028;-84
2021/11/21 06:50:21;;;;;;;0.40;0.40;;;;;;;;;;5067367;28;20044;-84
2021/11/21 06:52:47;;;;;;;;;;;;;;;;;;5066611;28;20035;-84
2021/11/21 06:55:16;;;;;;;0.40;0.40;;;;;;;;;;5065473;28;19916;-84
2021/11/21 06:57:42;;;;;;;0.30;0.30;;;;;;;;;;5069706;28;20294;-84
2021/11/21 07:00:10;;;;;;;0.30;0.30;;;;;;;;;;5067383;28;20060;-85
2021/11/21 07:02:36;;;;;;;0.40;0.40;;;;;;;;;;5066306;28;20089;-85
2021/11/21 07:05:02;;;;;;;0.30;0.30;;;;;;;;;;5067125;28;20031;-83
2021/11/21 07:07:28;;;;;;;0.60;0.60;;;;;;;;;;5063039;28;20029;-85
2021/11/21 07:09:54;;;;;;;0.77;0.77;;;;;;;;;;5076471;28;20086;-84
2021/11/21 07:12:20;;;;;;;0.40;0.40;;;;;;;;;;5067959;28;20505;-84
2021/11/21 07:14:46;;;;;;;0.40;0.40;;;;;;;;;;5067167;28;20725;-84
2021/11/21 07:17:12;;;;;;;0.35;0.35;;;;;;;;;;5066943;28;20036;-84
2021/11/21 07:19:38;;;;;;;0.30;0.30;;;;;;;;;;5061797;28;20349;-84
2021/11/21 07:22:04;;;;;;;0.47;0.47;;;;;;;;;;5066610;28;20117;-85
2021/11/21 07:24:31;;;;;;;0.40;0.40;;;;;;;;;;5067983;28;20059;-84
2021/11/21 07:26:59;;;;;;;0.40;0.40;;;;;;;;;;5066676;28;20025;-83
2021/11/21 07:29:31;;;;;;;0.50;0.50;;;;;;;;;;5066688;28;20033;-84
2021/11/21 07:31:58;;;;;;;0.30;0.30;;;;;;;;;;5065997;28;20020;-84
2021/11/21 07:34:24;;;;;;;1.10;1.10;;;;;;;;;;5062691;28;20028;-84
2021/11/21 07:36:51;;;;;;;0.30;0.30;;;;;;;;;;5068708;28;20028;-83
2021/11/21 07:39:17;;;;;;;0.30;0.30;;;;;;;;;;5064106;28;20278;-84
2021/11/21 07:41:43;;;;;;;0.38;0.38;;;;;;;;;;5066175;28;20818;-84
2021/11/21 07:44:09;;;;;;;0.30;0.30;;;;;;;;;;5066555;28;20048;-84
2021/11/21 07:46:36;;;;;;;0.35;0.35;;;;;;;;;;5062621;28;20052;-84
2021/11/21 07:49:02;;;;;;;0.40;0.40;;;;;;;;;;5065744;28;20032;-84
2021/11/21 07:51:28;;;;;;;0.43;0.43;;;;;;;;;;5067271;28;20029;-84
2021/11/21 07:53:54;;;;;;;0.50;0.50;;;;;;;;;;5066240;28;20048;-84
2021/11/21 07:56:20;;;;;;;0.50;0.50;;;;;;;;;;5066045;28;20186;-84
2021/11/21 07:58:46;;;;;;;0.40;0.40;;;;;;;;;;5064150;28;20566;-83
2021/11/21 08:01:12;;;;;;;0.40;0.40;;;;;;;;;;5063593;28;20043;-85
2021/11/21 08:03:39;;;;;;;0.40;0.40;;;;;;;;;;5066710;28;20038;-84
2021/11/21 08:06:05;;;;;;;0.83;0.83;;;;;;;;;;5065970;28;20044;-83
2021/11/21 08:08:31;;;;;;;0.50;0.50;;;;;;;;;;5066096;28;20278;-84
2021/11/21 08:10:58;;;;;;;0.35;0.35;;;;;;;;;;5065722;28;20027;-85
2021/11/21 08:13:26;;;;;;;0.40;0.40;;;;;;;;;;5062148;28;20074;-83
2021/11/21 08:15:52;;;;;;;0.30;0.30;;;;;;;;;;5067598;28;20500;-83
2021/11/21 08:18:18;;;;;;;0.30;0.30;;;;;;;;;;5065982;28;20024;-83
2021/11/21 08:20:44;;;;;;;0.40;0.40;;;;;;;;;;5065694;28;20032;-85
2021/11/21 08:23:10;;;;;;;0.40;0.40;;;;;;;;;;5065703;28;20035;-83
2021/11/21 08:25:36;;;;;;;0.40;0.40;;;;;;;;;;5062653;28;20036;-84
2021/11/21 08:28:03;;;;;;;1.17;1.17;;;;;;;;;;5066381;28;20150;-83
2021/11/21 08:30:32;;;;;;;0.90;0.90;;;;;;;;;;5066602;28;20029;-83
2021/11/21 08:32:58;;;;;;;0.40;0.40;;;;;;;;;;5065793;28;20029;-83
2021/11/21 08:35:24;;;;;;;0.50;0.50;;;;;;;;;;5066038;28;20036;-84
2021/11/21 08:37:50;;;;;;;0.65;0.65;;;;;;;;;;5064590;28;20114;-83
2021/11/21 08:40:16;;;;;;;0.50;0.50;;;;;;;;;;5063320;28;20028;-83
2021/11/21 08:42:42;;;;;;;0.60;0.60;;;;;;;;;;5067869;28;20874;-83
2021/11/21 08:45:09;;;;;;;0.60;0.60;;;;;;;;;;5065098;28;20295;-83
2021/11/21 08:47:36;;;;;;;0.40;0.40;;;;;;;;;;5066155;28;20029;-84
2021/11/21 08:50:04;;;;;;;1.27;1.27;;;;;;;;;;5065632;28;20083;-83
2021/11/21 08:52:30;;;;;;;0.50;0.50;;;;;;;;;;5061356;28;20044;-84
2021/11/21 08:54:56;;;;;;;0.40;0.40;;;;;;;;;;5067874;28;20033;-84
2021/11/21 08:57:22;;;;;;;0.30;0.30;;;;;;;;;;5065739;28;20037;-83
2021/11/21 08:59:48;;;;;;;0.40;0.40;;;;;;;;;;5067351;28;20033;-83
2021/11/21 09:02:14;;;;;;;0.38;0.38;;;;;;;;;;5070088;28;20032;-84
2021/11/21 09:04:40;;;;;;;0.40;0.40;;;;;;;;;;5067174;28;20051;-84
2021/11/21 09:07:06;;;;;;;0.50;0.50;;;;;;;;;;5069172;28;20090;-83
2021/11/21 09:09:33;;;;;;;0.37;0.37;;;;;;;;;;5070685;28;20024;-86
2021/11/21 09:11:59;;;;;;;0.17;0.17;;;;;;;;;;5069805;28;20782;-85
2021/11/21 09:14:26;;;;;;;0.20;0.20;;;;;;;;;;5067822;28;20035;-84
2021/11/21 09:16:52;;;;;;;0.50;0.50;;;;;;;;;;5068514;28;20024;-85
2021/11/21 09:19:18;;;;;;;0.25;0.25;;;;;;;;;;5066239;28;20036;-84
2021/11/21 09:21:44;;;;;;;0.20;0.20;;;;;;;;;;5071365;28;20025;-84
2021/11/21 09:24:10;;;;;;;0.28;0.28;;;;;;;;;;5069101;28;20417;-84
2021/11/21 09:26:36;;;;;;;0.30;0.30;;;;;;;;;;5069231;28;20048;-85
2021/11/21 09:29:03;;;;;;;0.30;0.30;;;;;;;;;;5068916;28;20024;-85
2021/11/21 09:31:29;;;;;;;0.30;0.30;;;;;;;;;;5062206;28;20027;-84
2021/11/21 09:33:55;;;;;;;0.30;0.30;;;;;;;;;;5078311;28;20028;-85
2021/11/21 09:36:21;;;;;;;0.40;0.40;;;;;;;;;;5068740;28;20043;-86
2021/11/21 09:38:48;;;;;;;0.40;0.40;;;;;;;;;;5068712;28;20443;-85
2021/11/21 09:41:14;;;;;;;0.30;0.30;;;;;;;;;;5068679;28;20036;-84
2021/11/21 09:43:44;;;;;;;0.40;0.40;;;;;;;;;;5063994;28;20405;-85
2021/11/21 09:46:11;;;;;;;0.45;0.45;;;;;;;;;;5067703;28;20040;-85
2021/11/21 09:48:37;;;;;;;0.30;0.30;;;;;;;;;;5070923;28;20055;-85
2021/11/21 09:51:03;;;;;;;0.40;0.40;;;;;;;;;;5077669;28;20036;-85
2021/11/21 09:53:30;;;;;;;0.40;0.40;;;;;;;;;;5076826;28;20489;-84
2021/11/21 09:55:56;;;;;;;0.40;0.40;;;;;;;;;;5068055;28;20032;-84
2021/11/21 09:58:23;;;;;;;0.40;0.40;;;;;;;;;;5063004;28;20604;-85
2021/11/21 10:00:49;;;;;;;0.40;0.40;;;;;;;;;;5071168;28;20025;-85
2021/11/21 10:03:16;;;;;;;0.40;0.40;;;;;;;;;;5068241;28;20044;-86
2021/11/21 10:05:46;;;;;;;0.32;0.32;;;;;;;;;;5068591;28;20036;-85
2021/11/21 10:08:20;;;;;;;0.40;0.40;;;;;;;;;;5068532;28;20040;-85
2021/11/21 10:10:50;;;;;;;0.30;0.30;;;;;;;;;;5063129;28;20702;-84
2021/11/21 10:13:25;;;;;;;0.40;0.40;;;;;;;;;;5064633;28;20127;-85
2021/11/21 10:15:51;;;;;;;0.80;0.80;;;;;;;;;;5070506;28;20046;-85
2021/11/21 10:18:17;;;;;;;0.80;0.80;;;;;;;;;;5068513;28;20405;-85
2021/11/21 10:20:43;;;;;;;0.50;0.50;;;;;;;;;;5067702;28;20040;-85
2021/11/21 10:23:11;;;;;;;0.70;0.70;;;;;;;;;;5068181;28;20043;-84
2021/11/21 10:25:38;;;;;;;0.30;0.30;;;;;;;;;;5064715;28;20175;-83
2021/11/21 10:28:38;;;;;;;0.50;0.50;;;;;;;;;;5067439;28;20032;-85
2021/11/21 10:31:07;;;;;;;0.47;0.47;;;;;;;;;;5015007;28;20082;-85
2021/11/21 10:33:41;;;;;;;0.50;0.50;;;;;;;;;;5006364;28;20056;-84
2021/11/21 10:36:13;;;;;;;0.40;0.40;;;;;;;;;;5006150;28;20050;-85
2021/11/21 10:38:41;;;;;;;0.60;0.60;;;;;;;;;;5006568;28;20053;-85
2021/11/21 10:41:09;;;;;;;0.50;0.50;;;;;;;;;;5005749;28;20104;-84
2021/11/21 10:43:47;;;;;;;0.40;0.40;;;;;;;;;;5002602;28;20081;-85
2021/11/21 10:46:31;;;;;;;0.40;0.40;;;;;;;;;;5003725;28;20053;-84
2021/11/21 10:49:16;;;;;;;0.50;0.50;;;;;;;;;;5014592;28;20044;-84
2021/11/21 10:51:43;;;;;;;0.50;0.50;;;;;;;;;;5007114;28;20502;-84
2021/11/21 10:54:19;;;;;;;0.40;0.40;;;;;;;;;;5005931;28;20030;-84
2021/11/21 10:56:46;;;;;;;0.40;0.40;;;;;;;;;;5005697;28;20034;-85
2021/11/21 10:59:12;;;;;;;0.40;0.40;;;;;;;;;;5005954;28;20048;-84
2021/11/21 11:01:38;;;;;;;0.40;0.40;;;;;;;;;;5002782;28;20158;-84
2021/11/21 11:04:17;;;;;;;0.40;0.40;;;;;;;;;;5005113;28;20345;-84
2021/11/21 11:06:43;;;;;;;0.50;0.50;;;;;;;;;;5034197;28;20035;-84
2021/11/21 11:09:16;;;;;;;0.40;0.40;;;;;;;;;;5067327;28;20116;-84
2021/11/21 11:11:43;;;;;;;0.40;0.40;;;;;;;;;;5066349;28;20101;-85
2021/11/21 11:14:09;;;;;;;0.50;0.50;;;;;;;;;;5067297;28;20046;-84
2021/11/21 11:16:35;;;;;;;0.40;0.40;;;;;;;;;;5063124;28;20031;-85
2021/11/21 11:19:02;;;;;;;0.50;0.50;;;;;;;;;;5066243;28;20032;-84
2021/11/21 11:21:28;;;;;;;0.50;0.50;;;;;;;;;;5065816;28;20167;-84
2021/11/21 11:23:54;;;;;;;0.40;0.40;;;;;;;;;;5065600;28;20028;-85
2021/11/21 11:26:21;;;;;;;0.40;0.40;;;;;;;;;;5066102;28;20028;-85
2021/11/21 11:28:49;;;;;;;0.55;0.55;;;;;;;;;;5064848;28;20044;-86
2021/11/21 11:31:22;;;;;;;142.50;132.93;;;;;;;;;;5063784;28;20024;-85
2021/11/21 11:33:51;;;;;;;78.28;71.68;;;;;;;;;;5067476;28;20025;-84
2021/11/21 11:36:24;;;;;;;0.40;0.40;;;;;;;;;;5055833;28;20039;-86
2021/11/21 11:39:02;;;;;;;685.25;95.45;;;;;;;;;;5056182;28;20032;-84
2021/11/21 11:41:30;;;;;;;1999.90;999.90;;;;;;;;;;5057915;28;20397;-86
2021/11/21 11:43:57;;;;;;;1999.90;999.90;;;;;;;;;;5063232;28;20130;-84
2021/11/21 11:46:25;;;;;;;1999.90;999.90;;;;;;;;;;5048008;28;20028;-88
2021/11/21 11:48:54;;;;;;;546.83;94.55;;;;;;;;;;5050528;28;20036;-87
2021/11/21 11:51:48;;;;;;;1522.97;770.92;;;;;;;;;;5060100;28;20575;-86
2021/11/21 11:54:15;;;;;;;1999.90;999.90;;;;;;;;;;5059019;28;20605;-85
2021/11/21 11:56:48;;;;;;;16.95;11.25;;;;;;;;;;5052995;28;20032;-84
2021/11/21 11:59:47;;;;;;;3.63;1.85;;;;;;;;;;5053477;28;20242;-84
2021/11/21 12:02:33;;;;;;;7.78;3.95;;;;;;;;;;5049859;28;20127;-86
2021/11/21 12:05:03;;;;;;;4.00;3.83;;;;;;;;;;5057014;28;20524;-85
2021/11/21 12:07:40;;;;;;;2.50;1.08;;;;;;;;;;5056544;28;20762;-85
2021/11/21 12:10:15;;;;;;;0.32;0.25;;;;;;;;;;5052501;28;20024;-86
2021/11/21 12:12:55;;;;;;;0.85;0.85;;;;;;;;;;5061079;28;20474;-88
2021/11/21 12:15:39;;;;;;;0.38;0.38;;;;;;;;;;5059831;28;20037;-88
2021/11/21 12:18:06;;;;;;;2.38;1.35;;;;;;;;;;5053396;28;20569;-87
2021/11/21 12:20:46;;;;;;;0.45;0.45;;;;;;;;;;5060609;28;20036;-88
2021/11/21 12:23:12;;;;;;;1.05;0.98;;;;;;;;;;5057837;28;20037;-85
2021/11/21 12:25:39;;;;;;;0.40;0.40;;;;;;;;;;5058435;28;20032;-86
2021/11/21 12:28:06;;;;;;;0.70;0.70;;;;;;;;;;5056298;28;20036;-87
2021/11/21 12:30:33;;;;;;;1.77;1.65;;;;;;;;;;5058712;28;20074;-88
2021/11/21 12:33:04;;;;;;;2.08;1.75;;;;;;;;;;5057388;28;20029;-86
2021/11/21 12:35:34;;;;;;;1.17;1.17;;;;;;;;;;5058391;28;20024;-88
2021/11/21 12:38:33;;;;;;;1.88;1.75;;;;;;;;;;5050088;28;20029;-83
2021/11/21 12:41:00;;;;;;;1.80;1.70;;;;;;;;;;5053552;28;20054;-85
2021/11/21 12:43:27;;;;;;;2.55;1.85;;;;;;;;;;5057634;28;20059;-87
2021/11/21 12:45:55;;;;;;;0.57;0.52;;;;;;;;;;5063072;28;20048;-86
2021/11/21 12:48:25;;;;;;;2.58;1.30;;;;;;;;;;5047757;28;20071;-84
2021/11/21 12:50:51;;;;;;;1.08;1.08;;;;;;;;;;5052122;28;20033;-85
2021/11/21 12:53:26;;;;;;;1.37;1.27;;;;;;;;;;5053288;28;20036;-84
2021/11/21 12:55:54;;;;;;;4.28;1.27;;;;;;;;;;5052224;28;20277;-86
2021/11/21 12:58:22;;;;;;;2.03;1.85;;;;;;;;;;5054116;28;20044;-87
2021/11/21 13:00:48;;;;;;;1.55;1.48;;;;;;;;;;5053676;28;20021;-84
2021/11/21 13:03:16;;;;;;;0.65;0.65;;;;;;;;;;5048866;28;20360;-86
2021/11/21 13:05:43;;;;;;;0.77;0.77;;;;;;;;;;5049340;28;20567;-85
2021/11/21 13:08:08;;;;;;;;;;;;;;;;;;5053405;28;20028;-85
2021/11/21 13:10:37;;;;;;;0.85;0.85;;;;;;;;;;5050661;28;19912;-84
2021/11/21 13:13:03;;;;;;;0.43;0.43;;;;;;;;;;5052738;28;20036;-85
2021/11/21 13:15:29;;;;;;;3.00;0.83;;;;;;;;;;5054226;28;20029;-85
2021/11/21 13:18:05;;;;;;;1.30;1.23;;;;;;;;;;5051299;28;20037;-84
2021/11/21 13:20:31;;;;;;;1.40;0.85;;;;;;;;;;5052083;28;20060;-84
2021/11/21 13:22:59;;;;;;;2.10;1.90;;;;;;;;;;5060589;28;20036;-84
2021/11/21 13:25:31;;;;;;;0.52;0.52;;;;;;;;;;5045303;28;20083;-84
2021/11/21 13:28:16;;;;;;;2.17;1.52;;;;;;;;;;5049969;28;20074;-84
2021/11/21 13:30:42;;;;;;;2.28;1.85;;;;;;;;;;5050317;28;20029;-84
2021/11/21 13:33:15;;;;;;;1.70;1.15;;;;;;;;;;5052653;28;20211;-86
2021/11/21 13:35:41;;;;;;;1.42;1.33;;;;;;;;;;5044213;28;20029;-84
2021/11/21 13:38:08;;;;;;;0.60;0.57;;;;;;;;;;5046921;28;20102;-84
2021/11/21 13:40:34;;;;;;;1.25;1.15;;;;;;;;;;5049146;28;20033;-84
2021/11/21 13:43:04;;;;;;;2.08;1.25;;;;;;;;;;5048096;28;20037;-85
2021/11/21 13:45:30;;;;;;;6.68;2.22;;;;;;;;;;5048415;28;20028;-86
2021/11/21 13:47:56;;;;;;;3.80;1.80;;;;;;;;;;5052202;28;20033;-85
2021/11/21 13:50:32;;;;;;;8.70;0.97;;;;;;;;;;5049742;28;20291;-85
2021/11/21 13:52:59;;;;;;;0.20;0.20;;;;;;;;;;5049269;28;20048;-85
2021/11/21 13:55:26;;;;;;;0.63;0.30;;;;;;;;;;5053300;28;20036;-84
2021/11/21 13:57:56;;;;;;;1.65;1.17;;;;;;;;;;5051166;28;20057;-84
2021/11/21 14:00:30;;;;;;;2.75;2.55;;;;;;;;;;5066492;28;20394;-86
2021/11/21 14:03:03;;;;;;;6.63;5.15;;;;;;;;;;5068347;28;20079;-86
2021/11/21 14:05:29;;;;;;;2.05;1.95;;;;;;;;;;5064217;28;20161;-84
2021/11/21 14:07:56;;;;;;;9.90;3.53;;;;;;;;;;5069690;28;20141;-83
2021/11/21 14:10:28;;;;;;;1.75;1.65;;;;;;;;;;5061018;28;20517;-84
2021/11/21 14:13:11;;;;;;;4.05;2.05;;;;;;;;;;5078614;28;20040;-84
2021/11/21 14:15:38;;;;;;;1.13;0.98;;;;;;;;;;5064738;28;20021;-84
2021/11/21 14:18:04;;;;;;;2.38;2.25;;;;;;;;;;5061252;28;20413;-86
2021/11/21 14:20:41;;;;;;;1.83;1.70;;;;;;;;;;5055714;28;20407;-82
2021/11/21 14:23:09;;;;;;;1.38;1.17;;;;;;;;;;5063230;28;20032;-87
2021/11/21 14:25:37;;;;;;;2.05;1.95;;;;;;;;;;5054343;28;20475;-86
2021/11/21 14:28:08;;;;;;;5.70;1.85;;;;;;;;;;5049464;28;20040;-87
2021/11/21 14:30:39;;;;;;;2.45;1.65;;;;;;;;;;5067012;28;20535;-86
2021/11/21 14:33:12;;;;;;;3.45;2.80;;;;;;;;;;5066243;28;20032;-86
2021/11/21 14:35:42;;;;;;;1.45;1.35;;;;;;;;;;5066978;28;20436;-85
2021/11/21 14:38:09;;;;;;;1.13;1.10;;;;;;;;;;5062289;28;20508;-87
2021/11/21 14:40:35;;;;;;;1.55;1.45;;;;;;;;;;5064039;28;20035;-87
2021/11/21 14:43:01;;;;;;;8.23;1.77;;;;;;;;;;5067714;28;20087;-87
2021/11/21 14:45:27;;;;;;;2.20;1.55;;;;;;;;;;5067935;28;20064;-86